createdAt,value
2019-03-22T00:01:51.293Z,57.50
2019-03-22T00:04:21.413Z,57.00
2019-03-22T00:06:51.546Z,56.90
2019-03-22T00:09:21.670Z,56.80
2019-03-22T00:11:51.783Z,56.90
2019-03-22T00:14:21.909Z,56.90
2019-03-22T00:16:52.045Z,57.00
2019-03-22T00:19:22.189Z,56.80
2019-03-22T00:21:52.307Z,57.00
2019-03-22T00:24:22.436Z,56.80
2019-03-22T00:26:53.578Z,56.80
2019-03-22T00:29:23.701Z,57.00
2019-03-22T00:31:53.793Z,56.90
2019-03-22T00:34:25.095Z,56.80
2019-03-22T00:36:56.162Z,56.90
2019-03-22T00:39:26.297Z,56.80
2019-03-22T00:41:56.399Z,56.90
2019-03-22T00:44:26.617Z,56.80
2019-03-22T00:46:59.426Z,56.80
2019-03-22T00:49:31.170Z,56.80
2019-03-22T00:52:01.268Z,56.90
2019-03-22T00:54:31.400Z,56.80
2019-03-22T00:57:01.522Z,57.00
2019-03-22T00:59:31.658Z,56.90
2019-03-22T01:02:01.747Z,56.90
2019-03-22T01:04:31.901Z,56.80
2019-03-22T01:07:02.030Z,56.80
2019-03-22T01:09:32.161Z,56.70
2019-03-22T01:12:02.264Z,56.90
2019-03-22T01:14:32.394Z,56.80
2019-03-22T01:17:02.510Z,56.80
2019-03-22T01:19:32.662Z,56.80
2019-03-22T01:22:02.758Z,56.80
2019-03-22T01:24:32.898Z,56.80
2019-03-22T01:27:03.000Z,56.80
2019-03-22T01:29:33.143Z,56.80
2019-03-22T01:32:03.276Z,56.80
2019-03-22T01:34:33.408Z,56.80
2019-03-22T01:37:03.520Z,56.80
2019-03-22T01:39:34.985Z,56.80
2019-03-22T01:42:05.176Z,56.80
2019-03-22T01:44:35.328Z,56.90
2019-03-22T01:47:24.641Z,56.80
2019-03-22T01:49:54.790Z,56.80
2019-03-22T01:52:24.899Z,56.80
2019-03-22T01:54:55.021Z,56.80
2019-03-22T01:57:25.153Z,56.80
2019-03-22T01:59:55.292Z,56.80
2019-03-22T02:02:25.393Z,56.80
2019-03-22T02:04:56.950Z,56.80
2019-03-22T02:07:27.061Z,56.80
2019-03-22T02:09:57.201Z,56.80
2019-03-22T02:12:27.306Z,56.80
2019-03-22T02:14:57.438Z,57.00
2019-03-22T02:17:27.565Z,56.80
2019-03-22T02:19:57.687Z,56.90
2019-03-22T02:22:27.805Z,56.90
2019-03-22T02:24:57.927Z,56.90
2019-03-22T02:27:28.041Z,56.90
2019-03-22T02:29:58.233Z,56.90
2019-03-22T02:32:28.346Z,56.90
2019-03-22T02:34:58.481Z,56.80
2019-03-22T02:37:28.618Z,56.80
2019-03-22T02:39:58.775Z,56.90
2019-03-22T02:42:28.871Z,56.90
2019-03-22T02:44:59.033Z,56.90
2019-03-22T02:47:29.138Z,56.90
2019-03-22T02:49:59.285Z,56.80
2019-03-22T02:52:29.367Z,56.80
2019-03-22T02:54:59.593Z,56.80
2019-03-22T02:57:29.763Z,56.90
2019-03-22T02:59:59.894Z,56.90
2019-03-22T03:02:30.004Z,56.80
2019-03-22T03:05:00.394Z,56.90
2019-03-22T03:07:31.133Z,56.80
2019-03-22T03:10:01.278Z,56.80
2019-03-22T03:12:31.387Z,56.80
2019-03-22T03:15:01.536Z,56.80
2019-03-22T03:17:31.655Z,56.90
2019-03-22T03:20:02.169Z,57.40
2019-03-22T03:22:32.289Z,57.30
2019-03-22T03:25:02.428Z,56.90
2019-03-22T03:27:33.839Z,56.80
2019-03-22T03:30:04.301Z,56.80
2019-03-22T03:32:35.493Z,56.90
2019-03-22T03:35:06.338Z,57.20
2019-03-22T03:37:38.168Z,56.80
2019-03-22T03:40:09.185Z,56.90
2019-03-22T03:42:39.305Z,56.80
2019-03-22T03:45:33.270Z,56.80
2019-03-22T03:48:06.875Z,57.00
2019-03-22T03:50:37.019Z,56.90
2019-03-22T03:53:07.152Z,56.80
2019-03-22T03:55:37.296Z,56.90
2019-03-22T03:58:07.465Z,56.90
2019-03-22T04:00:37.589Z,56.90
2019-03-22T04:03:07.742Z,56.80
2019-03-22T04:05:37.857Z,56.90
2019-03-22T04:08:07.976Z,56.80
2019-03-22T04:10:38.097Z,56.80
2019-03-22T04:13:08.202Z,56.80
2019-03-22T04:15:38.339Z,56.80
2019-03-22T04:18:08.435Z,56.80
2019-03-22T04:20:39.479Z,56.80
2019-03-22T04:23:09.599Z,56.80
2019-03-22T04:25:39.806Z,56.80
2019-03-22T04:28:09.934Z,56.70
2019-03-22T04:30:40.090Z,56.80
2019-03-22T04:33:10.203Z,56.90
2019-03-22T04:35:40.338Z,56.80
2019-03-22T04:38:10.518Z,56.80
2019-03-22T04:40:42.296Z,56.70
2019-03-22T04:43:12.470Z,56.80
2019-03-22T04:45:42.603Z,56.80
2019-03-22T04:48:22.805Z,56.80
2019-03-22T04:50:52.993Z,57.30
2019-03-22T04:53:24.193Z,56.70
2019-03-22T04:55:58.667Z,56.70
2019-03-22T04:58:28.812Z,57.30
2019-03-22T05:00:58.983Z,56.70
2019-03-22T05:03:29.082Z,56.70
2019-03-22T05:05:59.234Z,56.80
2019-03-22T05:08:29.353Z,56.70
2019-03-22T05:10:59.474Z,56.70
2019-03-22T05:13:31.206Z,56.70
2019-03-22T05:16:01.342Z,56.70
2019-03-22T05:18:31.450Z,56.60
2019-03-22T05:21:01.606Z,57.40
2019-03-22T05:23:31.694Z,56.60
2019-03-22T05:26:01.838Z,56.70
2019-03-22T05:28:31.965Z,56.70
2019-03-22T05:31:39.058Z,56.70
2019-03-22T05:34:09.160Z,56.70
2019-03-22T05:36:39.293Z,56.70
2019-03-22T05:39:11.070Z,56.80
2019-03-22T05:41:41.218Z,56.80
2019-03-22T05:44:11.345Z,56.70
2019-03-22T05:46:42.307Z,56.70
2019-03-22T05:49:12.463Z,56.80
2019-03-22T05:51:42.602Z,56.80
2019-03-22T05:54:12.801Z,56.70
2019-03-22T05:56:43.020Z,56.70
2019-03-22T05:59:13.211Z,56.70
2019-03-22T06:01:45.283Z,56.70
2019-03-22T06:04:15.226Z,56.70
2019-03-22T06:06:45.352Z,56.70
2019-03-22T06:09:15.466Z,56.70
2019-03-22T06:11:45.742Z,56.70
2019-03-22T06:14:15.848Z,56.70
2019-03-22T06:16:46.070Z,56.70
2019-03-22T06:19:16.190Z,56.60
2019-03-22T06:21:46.318Z,56.60
2019-03-22T06:24:16.436Z,56.70
2019-03-22T06:26:46.546Z,56.70
2019-03-22T06:29:17.807Z,56.70
2019-03-22T06:31:47.958Z,56.60
2019-03-22T06:34:18.078Z,56.70
2019-03-22T06:36:48.195Z,56.70
2019-03-22T06:39:18.304Z,56.70
2019-03-22T06:41:48.452Z,56.70
2019-03-22T06:44:18.578Z,56.70
2019-03-22T06:46:48.715Z,56.70
2019-03-22T06:49:19.822Z,56.70
2019-03-22T06:51:49.974Z,56.70
2019-03-22T06:54:31.054Z,56.60
2019-03-22T06:56:51.970Z,56.70
2019-03-22T06:59:22.114Z,56.60
2019-03-22T07:01:52.244Z,56.70
2019-03-22T07:04:22.371Z,56.70
2019-03-22T07:06:52.524Z,56.70
2019-03-22T07:09:22.756Z,56.70
2019-03-22T07:11:52.935Z,56.60
2019-03-22T07:14:23.103Z,56.70
2019-03-22T07:16:53.248Z,56.60
2019-03-22T07:19:23.346Z,56.80
2019-03-22T07:21:53.492Z,56.80
2019-03-22T07:24:23.626Z,56.70
2019-03-22T07:26:53.743Z,56.70
2019-03-22T07:29:23.862Z,56.70
2019-03-22T07:31:53.990Z,56.70
2019-03-22T07:34:24.145Z,56.70
2019-03-22T07:36:54.298Z,56.70
2019-03-22T07:39:24.496Z,56.70
2019-03-22T07:41:54.628Z,56.70
2019-03-22T07:44:24.768Z,56.70
2019-03-22T07:46:54.957Z,56.70
2019-03-22T07:49:25.096Z,56.70
2019-03-22T07:51:55.254Z,56.70
2019-03-22T07:54:25.365Z,56.70
2019-03-22T07:56:55.582Z,56.70
2019-03-22T07:59:25.697Z,56.60
2019-03-22T08:01:57.477Z,56.70
2019-03-22T08:04:27.601Z,56.70
2019-03-22T08:06:57.738Z,56.60
2019-03-22T08:09:27.943Z,56.70
2019-03-22T08:11:58.081Z,56.70
2019-03-22T08:14:28.265Z,56.70
2019-03-22T08:16:58.390Z,56.60
2019-03-22T08:19:30.198Z,56.60
2019-03-22T08:22:00.370Z,56.70
2019-03-22T08:24:30.628Z,56.70
2019-03-22T08:27:01.701Z,56.70
2019-03-22T08:29:43.321Z,56.60
2019-03-22T08:32:13.505Z,56.60
2019-03-22T08:34:43.694Z,56.80
2019-03-22T08:37:13.855Z,56.70
2019-03-22T08:39:44.056Z,56.80
2019-03-22T08:42:14.282Z,56.80
2019-03-22T08:44:44.441Z,56.90
2019-03-22T08:47:14.578Z,56.80
2019-03-22T08:49:44.988Z,56.70
2019-03-22T08:52:15.447Z,56.90
2019-03-22T08:54:45.608Z,56.20
2019-03-22T08:57:15.741Z,56.80
2019-03-22T08:59:45.911Z,56.80
2019-03-22T09:02:16.080Z,56.80
2019-03-22T09:04:46.189Z,56.90
2019-03-22T09:07:16.389Z,56.80
2019-03-22T09:09:46.532Z,56.80
2019-03-22T09:12:16.739Z,56.90
2019-03-22T09:14:46.859Z,57.00
2019-03-22T09:17:17.015Z,57.00
2019-03-22T09:19:47.137Z,56.90
2019-03-22T09:22:17.275Z,57.10
2019-03-22T09:24:47.397Z,57.10
2019-03-22T09:27:17.513Z,57.00
2019-03-22T09:29:47.639Z,57.10
2019-03-22T09:32:17.999Z,57.10
2019-03-22T09:34:48.107Z,57.00
2019-03-22T09:37:18.263Z,57.00
2019-03-22T09:39:48.431Z,57.00
2019-03-22T09:42:18.599Z,57.00
2019-03-22T09:44:48.918Z,57.10
2019-03-22T09:47:19.170Z,57.00
2019-03-22T09:49:51.182Z,57.00
2019-03-22T09:52:21.173Z,57.60
2019-03-22T09:54:51.364Z,56.90
2019-03-22T09:57:21.575Z,56.90
2019-03-22T09:59:51.753Z,56.90
2019-03-22T10:02:33.632Z,56.90
2019-03-22T10:05:03.999Z,56.80
2019-03-22T10:07:34.212Z,56.90
2019-03-22T10:10:05.505Z,56.90
2019-03-22T10:12:35.641Z,56.80
2019-03-22T10:15:07.097Z,56.90
2019-03-22T10:17:37.327Z,56.90
2019-03-22T10:20:07.555Z,56.80
2019-03-22T10:22:39.362Z,56.90
2019-03-22T10:25:09.555Z,56.90
2019-03-22T10:27:39.827Z,56.90
2019-03-22T10:30:10.018Z,56.90
2019-03-22T10:32:40.248Z,57.00
2019-03-22T10:35:25.082Z,56.90
2019-03-22T10:37:43.293Z,56.90
2019-03-22T10:40:13.438Z,56.90
2019-03-22T10:42:43.614Z,57.00
2019-03-22T10:45:16.179Z,57.00
2019-03-22T10:47:46.439Z,57.00
2019-03-22T10:50:16.627Z,57.00
2019-03-22T10:52:48.187Z,57.00
2019-03-22T10:55:29.687Z,57.00
2019-03-22T10:57:50.576Z,57.00
2019-03-22T11:00:20.698Z,57.00
2019-03-22T11:02:50.845Z,57.10
2019-03-22T11:05:20.985Z,57.20
2019-03-22T11:07:51.131Z,57.20
2019-03-22T11:10:21.331Z,57.10
2019-03-22T11:12:51.459Z,57.00
2019-03-22T11:15:21.609Z,57.20
2019-03-22T11:17:51.745Z,57.20
2019-03-22T11:20:21.869Z,57.20
2019-03-22T11:22:52.003Z,57.20
2019-03-22T11:25:22.141Z,57.20
2019-03-22T11:27:52.281Z,57.20
2019-03-22T11:30:22.422Z,57.20
2019-03-22T11:32:52.565Z,57.30
2019-03-22T11:35:22.717Z,57.30
2019-03-22T11:37:52.876Z,57.30
2019-03-22T11:40:23.118Z,57.30
2019-03-22T11:42:53.262Z,57.30
2019-03-22T11:45:24.588Z,57.30
2019-03-22T11:47:55.282Z,57.40
2019-03-22T11:50:25.561Z,57.40
2019-03-22T11:52:55.717Z,57.30
2019-03-22T11:55:25.906Z,57.40
2019-03-22T11:57:56.113Z,57.30
2019-03-22T12:00:26.329Z,57.30
2019-03-22T12:02:56.479Z,57.50
2019-03-22T12:05:26.618Z,57.50
2019-03-22T12:07:56.748Z,57.40
2019-03-22T12:10:26.886Z,57.40
2019-03-22T12:12:57.063Z,57.40
2019-03-22T12:15:27.201Z,57.30
2019-03-22T12:17:57.397Z,57.40
2019-03-22T12:20:27.546Z,57.40
2019-03-22T12:22:57.742Z,57.40
2019-03-22T12:25:27.857Z,57.40
2019-03-22T12:27:58.016Z,57.30
2019-03-22T12:30:28.151Z,57.30
2019-03-22T12:32:58.306Z,57.10
2019-03-22T12:35:28.457Z,57.20
2019-03-22T12:37:58.627Z,57.20
2019-03-22T12:40:28.752Z,57.30
2019-03-22T12:42:58.893Z,57.30
2019-03-22T12:45:29.039Z,57.20
2019-03-22T12:47:59.195Z,57.20
2019-03-22T12:50:30.566Z,57.10
2019-03-22T12:53:00.740Z,57.30
2019-03-22T12:55:30.874Z,57.80
2019-03-22T12:58:01.066Z,57.30
2019-03-22T13:00:31.198Z,57.00
2019-03-22T13:03:01.349Z,57.00
2019-03-22T13:05:31.482Z,57.00
2019-03-22T13:08:01.698Z,57.00
2019-03-22T13:10:32.381Z,57.00
2019-03-22T13:13:02.545Z,57.00
2019-03-22T13:15:32.682Z,56.90
2019-03-22T13:18:03.269Z,57.00
2019-03-22T13:20:33.375Z,57.10
2019-03-22T13:23:03.613Z,57.00
2019-03-22T13:25:33.827Z,56.90
2019-03-22T13:28:03.986Z,57.00
2019-03-22T13:30:38.327Z,56.90
2019-03-22T13:33:08.497Z,57.00
2019-03-22T13:35:38.646Z,57.20
2019-03-22T13:38:08.786Z,57.00
2019-03-22T13:40:38.916Z,56.90
2019-03-22T13:43:09.107Z,57.10
2019-03-22T13:45:39.234Z,57.10
2019-03-22T13:48:09.430Z,57.10
2019-03-22T13:50:39.541Z,57.10
2019-03-22T13:53:09.675Z,56.90
2019-03-22T13:55:39.800Z,56.90
2019-03-22T13:58:10.007Z,56.90
2019-03-22T14:00:40.136Z,56.90
2019-03-22T14:03:10.338Z,56.80
2019-03-22T14:05:40.452Z,56.90
2019-03-22T14:08:10.634Z,56.90
2019-03-22T14:10:40.782Z,57.00
2019-03-22T14:13:10.923Z,56.90
2019-03-22T14:15:41.056Z,56.70
2019-03-22T14:18:11.248Z,56.80
2019-03-22T14:20:41.438Z,56.90
2019-03-22T14:23:11.611Z,56.80
2019-03-22T14:25:41.842Z,56.90
2019-03-22T14:28:11.980Z,56.90
2019-03-22T14:30:42.108Z,56.90
2019-03-22T14:33:13.525Z,57.00
2019-03-22T14:35:44.086Z,56.90
2019-03-22T14:38:14.241Z,57.00
2019-03-22T14:40:44.387Z,57.00
2019-03-22T14:43:14.530Z,57.00
2019-03-22T14:45:44.668Z,57.00
2019-03-22T14:48:14.812Z,56.90
2019-03-22T14:50:44.947Z,57.00
2019-03-22T14:53:15.089Z,57.00
2019-03-22T14:55:47.005Z,57.00
2019-03-22T14:58:17.149Z,56.90
2019-03-22T15:00:47.300Z,57.00
2019-03-22T15:03:29.392Z,56.90
2019-03-22T15:05:59.512Z,56.80
2019-03-22T15:08:29.688Z,56.90
2019-03-22T15:10:59.831Z,56.80
2019-03-22T15:13:36.236Z,56.80
2019-03-22T15:16:38.564Z,56.90
2019-03-22T15:19:27.025Z,56.80
2019-03-22T15:22:15.206Z,56.70
2019-03-22T15:25:02.964Z,56.80
2019-03-22T15:27:57.943Z,56.80
2019-03-22T15:30:56.390Z,56.90
2019-03-22T15:36:49.007Z,56.90
2019-03-22T15:39:41.051Z,56.90
2019-03-22T15:42:11.213Z,57.00
2019-03-22T15:44:41.348Z,57.00
2019-03-22T15:47:11.486Z,56.90
2019-03-22T15:49:41.661Z,56.90
2019-03-22T15:52:11.825Z,56.80
2019-03-22T15:54:41.980Z,56.80
2019-03-22T15:57:12.155Z,56.70
2019-03-22T15:59:42.304Z,56.80
2019-03-22T16:02:12.525Z,56.80
2019-03-22T16:04:42.729Z,56.80
2019-03-22T16:07:12.869Z,56.70
2019-03-22T16:09:42.995Z,56.70
2019-03-22T16:12:13.141Z,56.70
2019-03-22T16:14:43.278Z,56.80
2019-03-22T16:17:13.418Z,56.70
2019-03-22T16:19:43.563Z,56.70
2019-03-22T16:22:13.757Z,56.70
2019-03-22T16:24:43.907Z,56.70
2019-03-22T16:27:14.038Z,56.70
2019-03-22T16:29:44.201Z,56.60
2019-03-22T16:32:15.956Z,56.70
2019-03-22T16:34:46.097Z,56.70
2019-03-22T16:37:17.886Z,56.70
2019-03-22T16:39:48.010Z,56.70
2019-03-22T16:42:18.157Z,56.60
2019-03-22T16:44:49.237Z,56.70
2019-03-22T16:47:19.625Z,57.20
2019-03-22T16:49:49.928Z,56.60
2019-03-22T16:52:20.512Z,56.60
2019-03-22T16:54:51.352Z,56.60
2019-03-22T16:57:21.501Z,56.60
2019-03-22T16:59:51.630Z,56.60
2019-03-22T17:02:21.774Z,56.60
2019-03-22T17:04:51.960Z,55.70
2019-03-22T17:07:22.086Z,56.50
2019-03-22T17:09:52.257Z,56.50
2019-03-22T17:12:22.384Z,56.60
2019-03-22T17:14:52.504Z,56.60
2019-03-22T17:17:22.640Z,56.60
2019-03-22T17:19:52.829Z,56.50
2019-03-22T17:22:22.981Z,56.50
2019-03-22T17:24:53.109Z,56.40
2019-03-22T17:27:23.315Z,56.40
2019-03-22T17:29:53.481Z,56.40
2019-03-22T17:32:23.617Z,56.40
2019-03-22T17:34:53.781Z,56.50
2019-03-22T17:37:23.949Z,56.60
2019-03-22T17:39:54.182Z,56.60
2019-03-22T17:42:24.298Z,56.70
2019-03-22T17:44:54.464Z,56.80
2019-03-22T17:47:24.590Z,56.90
2019-03-22T17:49:54.775Z,57.40
2019-03-22T17:52:24.913Z,56.90
2019-03-22T17:54:55.069Z,56.80
2019-03-22T17:57:25.176Z,56.90
2019-03-22T17:59:55.383Z,56.90
2019-03-22T18:02:25.569Z,57.00
2019-03-22T18:04:55.711Z,57.00
2019-03-22T18:07:25.833Z,56.90
2019-03-22T18:09:55.965Z,56.90
2019-03-22T18:12:26.073Z,56.90
2019-03-22T18:14:57.560Z,57.00
2019-03-22T18:17:27.733Z,56.90
2019-03-22T18:19:57.861Z,56.90
2019-03-22T18:22:28.007Z,56.90
2019-03-22T18:24:58.173Z,56.90
2019-03-22T18:27:28.335Z,56.90
2019-03-22T18:29:58.562Z,56.90
2019-03-22T18:32:28.770Z,56.80
2019-03-22T18:34:58.947Z,56.90
2019-03-22T18:37:29.143Z,56.70
2019-03-22T18:39:59.350Z,56.80
2019-03-22T18:42:29.527Z,57.00
2019-03-22T18:44:59.725Z,56.90
2019-03-22T18:47:29.947Z,56.90
2019-03-22T18:50:00.213Z,56.90
2019-03-22T18:52:30.984Z,56.90
2019-03-22T18:55:01.167Z,56.80
2019-03-22T18:57:31.329Z,56.90
2019-03-22T19:00:01.583Z,56.80
2019-03-22T19:02:31.725Z,56.80
2019-03-22T19:05:01.893Z,56.80
2019-03-22T19:07:32.089Z,56.80
2019-03-22T19:10:02.331Z,56.80
2019-03-22T19:12:32.544Z,56.80
2019-03-22T19:15:02.710Z,56.80
2019-03-22T19:17:34.505Z,56.70
2019-03-22T19:20:06.684Z,56.70
2019-03-22T19:22:36.896Z,56.70
2019-03-22T19:25:08.297Z,56.80
2019-03-22T19:27:38.597Z,56.80
2019-03-22T19:30:10.900Z,56.80
2019-03-22T19:32:41.115Z,56.80
2019-03-22T19:35:12.531Z,56.80
2019-03-22T19:37:42.675Z,56.80
2019-03-22T19:40:13.755Z,56.90
2019-03-22T19:42:44.366Z,56.80
2019-03-22T19:45:16.659Z,56.80
2019-03-22T19:47:46.580Z,56.90
2019-03-22T19:50:16.923Z,56.80
2019-03-22T19:52:47.150Z,56.80
2019-03-22T19:55:17.372Z,56.80
2019-03-22T19:57:47.519Z,56.80
2019-03-22T20:00:19.130Z,56.80
2019-03-22T20:02:49.459Z,56.80
2019-03-22T20:05:31.085Z,56.90
2019-03-22T20:08:01.402Z,56.80
2019-03-22T20:10:31.640Z,56.90
2019-03-22T20:13:01.908Z,56.90
2019-03-22T20:15:32.072Z,56.80
2019-03-22T20:18:02.277Z,56.80
2019-03-22T20:20:32.476Z,56.80
2019-03-22T20:23:02.838Z,56.80
2019-03-22T20:25:33.053Z,56.80
2019-03-22T20:28:03.286Z,56.80
2019-03-22T20:30:33.517Z,56.80
2019-03-22T20:33:03.747Z,56.90
2019-03-22T20:35:33.927Z,56.90
2019-03-22T20:38:04.070Z,56.90
2019-03-22T20:40:34.292Z,56.90
2019-03-22T20:43:04.473Z,56.90
2019-03-22T20:45:34.713Z,56.90
2019-03-22T20:48:04.859Z,56.90
2019-03-22T20:50:36.187Z,56.90
2019-03-22T20:53:07.185Z,56.90
2019-03-22T20:55:37.321Z,56.90
2019-03-22T20:58:08.841Z,57.00
2019-03-22T21:00:38.974Z,56.90
2019-03-22T21:03:09.118Z,56.90
2019-03-22T21:05:39.273Z,56.90
2019-03-22T21:08:09.404Z,56.90
2019-03-22T21:10:39.561Z,57.00
2019-03-22T21:13:09.705Z,57.00
2019-03-22T21:15:40.549Z,57.00
2019-03-22T21:18:10.712Z,56.90
2019-03-22T21:20:40.869Z,56.90
2019-03-22T21:23:11.502Z,57.60
2019-03-22T21:25:41.682Z,56.90
2019-03-22T21:28:11.842Z,57.00
2019-03-22T21:30:42.069Z,57.00
2019-03-22T21:33:12.212Z,57.00
2019-03-22T21:35:42.368Z,57.00
2019-03-22T21:38:12.525Z,57.00
2019-03-22T21:40:42.677Z,57.00
2019-03-22T21:43:13.426Z,57.00
2019-03-22T21:45:43.586Z,57.00
2019-03-22T21:48:13.747Z,57.00
2019-03-22T21:50:43.998Z,57.00
2019-03-22T21:53:14.244Z,57.00
2019-03-22T21:55:44.383Z,57.00
2019-03-22T21:58:14.558Z,57.10
2019-03-22T22:00:44.710Z,57.00
2019-03-22T22:03:14.902Z,57.00
2019-03-22T22:05:47.986Z,57.10
2019-03-22T22:08:16.876Z,57.00
2019-03-22T22:10:47.021Z,57.00
2019-03-22T22:13:18.198Z,57.00
2019-03-22T22:15:48.352Z,57.10
2019-03-22T22:18:19.436Z,57.00
2019-03-22T22:20:49.586Z,57.00
2019-03-22T22:23:19.710Z,57.60
2019-03-22T22:25:49.932Z,57.00
2019-03-22T22:28:20.540Z,57.00
2019-03-22T22:30:50.766Z,57.00
2019-03-22T22:33:20.884Z,57.00
2019-03-22T22:35:58.667Z,57.00
2019-03-22T22:38:22.881Z,57.00
2019-03-22T22:40:53.112Z,57.00
2019-03-22T22:43:24.231Z,57.00
2019-03-22T22:45:54.337Z,57.00
2019-03-22T22:48:24.438Z,57.00
2019-03-22T22:50:56.209Z,57.00
2019-03-22T22:53:27.977Z,56.90
2019-03-22T22:55:58.135Z,56.90
2019-03-22T22:58:28.281Z,56.90
2019-03-22T23:00:58.423Z,56.90
2019-03-22T23:03:30.171Z,56.90
2019-03-22T23:06:09.062Z,57.00
2019-03-22T23:08:32.141Z,57.00
2019-03-22T23:11:02.355Z,56.90
2019-03-22T23:13:32.605Z,56.90
2019-03-22T23:16:02.826Z,57.00
2019-03-22T23:18:32.930Z,57.00
2019-03-22T23:21:03.062Z,57.10
2019-03-22T23:23:33.173Z,57.00
2019-03-22T23:26:03.308Z,57.00
2019-03-22T23:28:33.430Z,57.00
2019-03-22T23:31:03.562Z,57.00
2019-03-22T23:33:33.682Z,57.10
2019-03-22T23:36:03.822Z,57.10
2019-03-22T23:38:34.998Z,57.00
2019-03-22T23:41:05.190Z,57.00
2019-03-22T23:43:35.302Z,57.10
2019-03-22T23:46:05.543Z,57.10
2019-03-22T23:48:35.665Z,57.00
2019-03-22T23:51:05.842Z,57.00
2019-03-22T23:53:36.981Z,57.00
2019-03-22T23:56:07.134Z,57.10
2019-03-22T23:58:37.267Z,57.10
